createdAt,value
2018-02-23T00:00:39.666Z,102032.88
2018-02-23T00:03:07.129Z,102041.94
2018-02-23T00:19:07.984Z,102024.33
2018-02-23T00:21:35.442Z,102015.14
2018-02-23T00:24:02.902Z,102022.77
2018-02-23T00:26:30.485Z,102026.45
2018-02-23T00:28:57.945Z,102016.95
2018-02-23T00:31:25.455Z,102014.55
2018-02-23T00:33:52.934Z,102016.41
2018-02-23T00:36:20.381Z,102021.91
2018-02-23T00:38:47.838Z,102018.77
2018-02-23T00:41:15.491Z,102020.88
2018-02-23T00:43:42.999Z,102023.08
2018-02-23T00:46:10.462Z,102027.17
2018-02-23T00:48:37.938Z,102029.80
2018-02-23T00:51:05.398Z,102029.20
2018-02-23T00:53:32.931Z,102027.34
2018-02-23T00:56:00.495Z,102020.35
2018-02-23T00:58:28.770Z,102016.12
2018-02-23T01:00:56.292Z,102023.14
2018-02-23T01:03:23.781Z,102016.47
2018-02-23T01:05:51.336Z,102019.47
2018-02-23T01:08:18.850Z,102015.06
2018-02-23T01:10:46.362Z,102025.06
2018-02-23T01:13:13.910Z,102013.59
2018-02-23T01:15:41.404Z,102019.98
2018-02-23T01:18:08.936Z,102018.66
2018-02-23T01:20:36.391Z,102013.87
2018-02-23T01:23:03.841Z,102015.61
2018-02-23T01:25:31.318Z,102018.61
2018-02-23T01:27:58.867Z,102010.78
2018-02-23T01:30:26.421Z,102008.41
2018-02-23T01:32:53.906Z,102006.33
2018-02-23T01:35:21.443Z,102006.32
2018-02-23T01:37:48.993Z,102003.00
2018-02-23T01:40:16.473Z,102005.84
2018-02-23T01:42:43.362Z,102008.31
2018-02-23T01:45:10.822Z,102009.00
2018-02-23T01:47:38.294Z,102004.34
2018-02-23T01:50:05.764Z,102004.94
2018-02-23T01:52:33.330Z,102003.26
2018-02-23T01:55:00.822Z,102005.59
2018-02-23T01:57:28.279Z,102005.03
2018-02-23T01:59:55.733Z,102005.33
2018-02-23T02:02:23.198Z,102004.67
2018-02-23T02:04:50.656Z,101999.70
2018-02-23T02:07:18.141Z,101996.37
2018-02-23T02:09:45.623Z,102001.06
2018-02-23T02:12:13.194Z,102001.95
2018-02-23T02:14:40.749Z,101998.79
2018-02-23T02:17:08.305Z,102001.13
2018-02-23T02:19:35.766Z,102000.79
2018-02-23T02:22:03.230Z,102002.02
2018-02-23T02:24:30.714Z,102000.27
2018-02-23T02:26:58.193Z,101998.39
2018-02-23T02:29:25.650Z,101999.20
2018-02-23T02:31:53.146Z,101991.16
2018-02-23T02:34:20.611Z,101994.95
2018-02-23T02:36:48.071Z,101996.19
2018-02-23T02:39:15.550Z,101994.86
2018-02-23T02:41:43.037Z,101995.77
2018-02-23T02:44:10.486Z,101994.18
2018-02-23T02:46:38.006Z,101994.16
2018-02-23T02:49:05.549Z,101991.86
2018-02-23T02:51:33.058Z,101989.50
2018-02-23T02:54:00.550Z,101999.78
2018-02-23T02:56:28.030Z,101994.22
2018-02-23T02:58:55.496Z,101991.92
2018-02-23T03:01:23.051Z,101990.23
2018-02-23T03:03:50.515Z,101991.66
2018-02-23T03:06:18.101Z,101994.18
2018-02-23T03:08:45.609Z,102000.28
2018-02-23T03:11:13.078Z,101998.06
2018-02-23T03:13:40.643Z,102001.12
2018-02-23T03:16:08.101Z,101998.11
2018-02-23T03:18:35.553Z,102009.14
2018-02-23T03:21:03.059Z,102004.25
2018-02-23T03:23:30.527Z,101997.36
2018-02-23T03:25:57.986Z,101992.55
2018-02-23T03:28:25.478Z,101987.15
2018-02-23T03:30:52.940Z,101986.56
2018-02-23T03:33:20.501Z,101994.73
2018-02-23T03:35:48.014Z,101994.56
2018-02-23T03:38:15.473Z,101993.40
2018-02-23T03:40:42.982Z,101992.02
2018-02-23T03:43:10.453Z,101992.91
2018-02-23T03:45:37.909Z,102000.24
2018-02-23T03:48:05.381Z,101998.09
2018-02-23T03:50:32.907Z,102014.69
2018-02-23T03:53:00.410Z,102012.55
2018-02-23T03:55:28.022Z,102010.34
2018-02-23T03:57:55.661Z,102013.14
2018-02-23T04:00:23.256Z,102007.73
2018-02-23T04:02:50.717Z,102013.61
2018-02-23T04:05:18.368Z,102014.33
2018-02-23T04:07:46.134Z,102017.41
2018-02-23T04:10:13.618Z,102017.67
2018-02-23T04:12:41.095Z,102019.98
2018-02-23T04:15:08.585Z,102022.09
2018-02-23T04:17:36.305Z,102014.70
2018-02-23T04:20:03.775Z,102018.35
2018-02-23T04:22:31.333Z,102022.48
2018-02-23T04:24:58.789Z,102011.52
2018-02-23T04:27:26.289Z,102014.95
2018-02-23T04:29:53.762Z,102019.66
2018-02-23T04:32:21.309Z,102022.23
2018-02-23T04:34:48.794Z,102017.86
2018-02-23T04:37:16.261Z,102024.85
2018-02-23T04:39:43.722Z,102023.28
2018-02-23T04:42:11.196Z,102029.13
2018-02-23T04:44:38.694Z,102028.31
2018-02-23T04:47:06.154Z,102027.20
2018-02-23T04:49:33.614Z,102030.59
2018-02-23T04:52:01.105Z,102032.88
2018-02-23T04:54:28.630Z,102042.29
2018-02-23T04:56:56.186Z,102040.04
2018-02-23T04:59:23.662Z,102037.30
2018-02-23T05:01:51.125Z,102045.84
2018-02-23T05:04:18.665Z,102039.25
2018-02-23T05:06:46.214Z,102040.39
2018-02-23T05:09:13.787Z,102045.19
2018-02-23T05:11:41.298Z,102040.25
2018-02-23T05:14:08.758Z,102040.61
2018-02-23T05:16:36.261Z,102041.32
2018-02-23T05:19:03.744Z,102039.17
2018-02-23T05:21:31.219Z,102046.38
2018-02-23T05:23:58.724Z,102056.94
2018-02-23T05:26:26.186Z,102052.85
2018-02-23T05:28:53.649Z,102053.39
2018-02-23T05:31:21.138Z,102057.16
2018-02-23T05:33:48.663Z,102053.45
2018-02-23T05:36:16.228Z,102057.66
2018-02-23T05:38:43.709Z,102051.55
2018-02-23T05:41:11.206Z,102055.23
2018-02-23T05:43:38.686Z,102055.44
2018-02-23T05:46:06.166Z,102053.35
2018-02-23T05:48:33.632Z,102054.66
2018-02-23T05:51:01.113Z,102050.01
2018-02-23T05:53:28.616Z,102058.89
2018-02-23T05:55:56.082Z,102061.00
2018-02-23T05:58:23.811Z,102072.00
2018-02-23T06:00:51.349Z,102065.36
2018-02-23T06:03:18.809Z,102070.06
2018-02-23T06:05:46.290Z,102074.20
2018-02-23T06:08:13.773Z,102081.39
2018-02-23T06:10:41.330Z,102086.66
2018-02-23T06:13:08.813Z,102093.69
2018-02-23T06:15:41.998Z,102096.49
2018-02-23T06:18:09.499Z,102092.87
2018-02-23T06:20:36.995Z,102086.54
2018-02-23T06:23:04.465Z,102080.95
2018-02-23T06:25:31.963Z,102081.59
2018-02-23T06:27:59.467Z,102095.42
2018-02-23T06:30:26.925Z,102099.19
2018-02-23T06:32:54.591Z,102104.42
2018-02-23T06:35:22.151Z,102095.19
2018-02-23T06:37:49.756Z,102116.62
2018-02-23T06:40:17.254Z,102104.59
2018-02-23T06:42:44.717Z,102120.59
2018-02-23T06:45:12.186Z,102112.76
2018-02-23T06:47:39.686Z,102109.66
2018-02-23T06:50:07.204Z,102118.07
2018-02-23T06:52:34.761Z,102123.07
2018-02-23T06:55:02.328Z,102128.03
2018-02-23T06:57:29.801Z,102135.34
2018-02-23T06:59:57.270Z,102131.05
2018-02-23T07:02:24.766Z,102126.25
2018-02-23T07:04:52.291Z,102134.75
2018-02-23T07:07:19.758Z,102128.55
2018-02-23T07:09:47.314Z,102130.69
2018-02-23T07:12:14.783Z,102130.72
2018-02-23T07:14:42.250Z,102129.94
2018-02-23T07:17:09.833Z,102124.30
2018-02-23T07:19:37.298Z,102131.18
2018-02-23T07:22:04.770Z,102134.51
2018-02-23T07:24:38.926Z,102135.47
2018-02-23T07:27:06.694Z,102139.08
2018-02-23T07:29:34.170Z,102144.38
2018-02-23T07:32:01.650Z,102143.53
2018-02-23T07:34:29.134Z,102144.29
2018-02-23T07:36:56.594Z,102149.37
2018-02-23T07:39:24.069Z,102149.06
2018-02-23T07:41:51.573Z,102141.22
2018-02-23T07:44:19.034Z,102148.31
2018-02-23T07:46:46.591Z,102146.59
2018-02-23T07:49:14.077Z,102146.60
2018-02-23T07:51:41.560Z,102151.58
2018-02-23T07:54:09.023Z,102147.35
2018-02-23T07:56:36.519Z,102164.08
2018-02-23T07:59:03.990Z,102157.94
2018-02-23T08:01:31.481Z,102163.42
2018-02-23T08:03:58.963Z,102164.77
2018-02-23T08:06:26.504Z,102173.45
2018-02-23T08:08:54.016Z,102167.90
2018-02-23T08:11:21.518Z,102169.14
2018-02-23T08:13:48.987Z,102178.77
2018-02-23T08:16:16.493Z,102181.89
2018-02-23T08:18:44.048Z,102178.31
2018-02-23T08:21:11.506Z,102183.69
2018-02-23T08:23:39.061Z,102182.08
2018-02-23T08:26:06.574Z,102175.33
2018-02-23T08:28:34.038Z,102176.91
2018-02-23T08:31:01.586Z,102175.05
2018-02-23T08:33:29.144Z,102177.59
2018-02-23T08:35:56.597Z,102173.05
2018-02-23T08:38:24.164Z,102170.12
2018-02-23T08:40:51.685Z,102167.59
2018-02-23T08:43:19.203Z,102168.47
2018-02-23T08:45:46.661Z,102177.51
2018-02-23T08:48:14.122Z,102177.87
2018-02-23T08:50:41.605Z,102179.34
2018-02-23T08:53:09.079Z,102183.90
2018-02-23T08:55:36.530Z,102173.13
2018-02-23T08:58:04.076Z,102183.47
2018-02-23T09:00:52.330Z,102181.36
2018-02-23T09:03:19.824Z,102186.67
2018-02-23T09:05:47.344Z,102182.37
2018-02-23T09:08:14.902Z,102183.72
2018-02-23T09:10:42.361Z,102187.61
2018-02-23T09:13:09.856Z,102190.78
2018-02-23T09:15:37.314Z,102185.28
2018-02-23T09:18:04.843Z,102191.89
2018-02-23T09:20:32.382Z,102191.70
2018-02-23T09:22:59.842Z,102191.22
2018-02-23T09:25:27.301Z,102196.77
2018-02-23T09:27:54.790Z,102193.53
2018-02-23T09:30:22.310Z,102195.13
2018-02-23T09:32:49.763Z,102193.38
2018-02-23T09:35:17.260Z,102194.44
2018-02-23T09:37:44.732Z,102194.48
2018-02-23T09:40:12.189Z,102198.89
2018-02-23T09:42:39.750Z,102201.20
2018-02-23T09:45:07.261Z,102206.25
2018-02-23T09:47:34.713Z,102193.13
2018-02-23T09:50:02.209Z,102195.28
2018-02-23T09:52:29.671Z,102192.56
2018-02-23T09:54:57.154Z,102190.23
2018-02-23T09:57:24.606Z,102190.12
2018-02-23T09:59:52.062Z,102192.14
2018-02-23T10:02:19.543Z,102195.98
2018-02-23T10:04:47.002Z,102194.20
2018-02-23T10:07:14.457Z,102199.30
2018-02-23T10:09:41.930Z,102193.08
2018-02-23T10:12:09.502Z,102197.23
2018-02-23T10:14:39.982Z,102199.69
2018-02-23T10:17:07.437Z,102194.28
2018-02-23T10:19:34.915Z,102198.75
2018-02-23T10:22:02.395Z,102200.17
2018-02-23T10:24:29.858Z,102197.84
2018-02-23T10:26:57.321Z,102196.16
2018-02-23T10:29:24.899Z,102199.01
2018-02-23T10:31:52.432Z,102192.95
2018-02-23T10:34:19.896Z,102187.80
2018-02-23T10:36:47.387Z,102189.58
2018-02-23T10:39:14.838Z,102192.75
2018-02-23T10:41:42.306Z,102186.90
2018-02-23T10:44:09.807Z,102181.26
2018-02-23T10:46:37.274Z,102182.95
2018-02-23T10:49:04.738Z,102187.44
2018-02-23T10:51:32.222Z,102179.86
2018-02-23T10:53:59.796Z,102185.66
2018-02-23T10:56:27.254Z,102184.84
2018-02-23T10:58:54.723Z,102180.66
2018-02-23T11:01:22.207Z,102176.97
2018-02-23T11:03:49.716Z,102180.83
2018-02-23T11:06:17.233Z,102174.08
2018-02-23T11:08:44.690Z,102174.09
2018-02-23T11:11:12.199Z,102181.58
2018-02-23T11:13:39.658Z,102180.83
2018-02-23T11:16:07.182Z,102181.42
2018-02-23T11:18:34.675Z,102177.79
2018-02-23T11:21:02.127Z,102173.63
2018-02-23T11:23:29.598Z,102168.48
2018-02-23T11:25:57.103Z,102159.64
2018-02-23T11:28:24.579Z,102166.50
2018-02-23T11:30:52.030Z,102169.56
2018-02-23T11:33:19.517Z,102159.75
2018-02-23T11:35:46.978Z,102166.72
2018-02-23T11:38:14.430Z,102159.34
2018-02-23T11:40:41.905Z,102157.92
2018-02-23T11:43:09.383Z,102163.55
2018-02-23T11:45:36.862Z,102153.44
2018-02-23T11:48:04.410Z,102152.00
2018-02-23T11:50:31.974Z,102147.99
2018-02-23T11:52:59.441Z,102154.92
2018-02-23T11:55:27.039Z,102157.15
2018-02-23T11:58:09.134Z,102152.22
2018-02-23T12:00:36.654Z,102148.61
2018-02-23T12:03:04.114Z,102149.06
2018-02-23T12:05:31.582Z,102148.44
2018-02-23T12:07:59.059Z,102148.44
2018-02-23T12:10:26.629Z,102150.25
2018-02-23T12:12:54.133Z,102150.63
2018-02-23T12:15:21.698Z,102151.62
2018-02-23T12:17:49.158Z,102153.09
2018-02-23T12:20:16.639Z,102147.55
2018-02-23T12:22:44.093Z,102151.26
2018-02-23T12:25:11.632Z,102146.70
2018-02-23T12:27:39.106Z,102144.93
2018-02-23T12:30:06.562Z,102148.12
2018-02-23T12:32:34.101Z,102143.20
2018-02-23T12:35:01.570Z,102137.95
2018-02-23T12:37:29.122Z,102141.31
2018-02-23T12:39:56.682Z,102138.52
2018-02-23T12:42:24.147Z,102126.63
2018-02-23T12:44:51.601Z,102131.22
2018-02-23T12:47:19.074Z,102130.69
2018-02-23T12:49:46.522Z,102130.79
2018-02-23T12:52:14.084Z,102123.25
2018-02-23T12:54:41.626Z,102125.79
2018-02-23T12:57:09.081Z,102121.36
2018-02-23T12:59:36.646Z,102121.42
2018-02-23T13:02:04.099Z,102131.00
2018-02-23T13:04:31.661Z,102124.34
2018-02-23T13:06:59.277Z,102118.89
2018-02-23T13:09:26.818Z,102125.18
2018-02-23T13:11:54.586Z,102123.99
2018-02-23T13:14:27.704Z,102120.80
2018-02-23T13:16:55.381Z,102116.50
2018-02-23T13:19:23.163Z,102118.73
2018-02-23T13:21:51.053Z,102117.17
2018-02-23T13:24:18.540Z,102113.78
2018-02-23T13:26:46.290Z,102114.03
2018-02-23T13:29:13.812Z,102109.96
2018-02-23T13:31:41.396Z,102114.27
2018-02-23T13:34:09.198Z,102111.22
2018-02-23T13:36:37.006Z,102113.12
2018-02-23T13:39:04.562Z,102118.23
2018-02-23T13:41:37.798Z,102119.75
2018-02-23T13:44:05.809Z,102113.85
2018-02-23T13:46:33.836Z,102110.72
2018-02-23T13:49:01.330Z,102103.38
2018-02-23T13:51:29.259Z,102108.19
2018-02-23T13:54:02.591Z,102112.61
2018-02-23T13:56:30.151Z,102108.25
2018-02-23T13:58:57.656Z,102113.97
2018-02-23T14:01:25.484Z,102118.36
2018-02-23T14:03:53.257Z,102114.18
2018-02-23T14:06:26.302Z,102119.37
2018-02-23T14:08:53.873Z,102115.48
2018-02-23T14:11:21.676Z,102114.36
2018-02-23T14:13:49.256Z,102106.55
2018-02-23T14:16:16.801Z,102110.78
2018-02-23T14:18:44.318Z,102107.58
2018-02-23T14:21:12.173Z,102112.60
2018-02-23T14:23:39.671Z,102115.70
2018-02-23T14:26:07.142Z,102113.85
2018-02-23T14:28:34.701Z,102112.27
2018-02-23T14:31:02.170Z,102112.91
2018-02-23T14:33:29.665Z,102111.94
2018-02-23T14:35:57.204Z,102105.66
2018-02-23T14:38:24.669Z,102109.16
2018-02-23T14:40:52.154Z,102104.63
2018-02-23T14:43:19.957Z,102104.63
2018-02-23T14:45:47.692Z,102110.17
2018-02-23T14:48:27.203Z,102102.73
2018-02-23T14:51:07.811Z,102108.88
2018-02-23T14:53:35.371Z,102105.60
2018-02-23T14:56:02.898Z,102110.20
2018-02-23T14:58:30.363Z,102110.59
2018-02-23T15:00:57.857Z,102108.16
2018-02-23T15:03:25.314Z,102103.23
2018-02-23T15:05:52.775Z,102110.85
2018-02-23T15:08:20.322Z,102110.07
2018-02-23T15:10:47.783Z,102110.25
2018-02-23T15:13:15.286Z,102106.86
2018-02-23T15:15:42.754Z,102105.77
2018-02-23T15:18:10.206Z,102106.98
2018-02-23T15:20:37.679Z,102099.92
2018-02-23T15:23:05.144Z,102103.27
2018-02-23T15:25:32.722Z,102100.59
2018-02-23T15:28:00.179Z,102104.53
2018-02-23T15:30:39.521Z,102104.18
2018-02-23T15:33:07.050Z,102105.33
2018-02-23T15:35:34.501Z,102102.61
2018-02-23T15:38:02.190Z,102107.70
2018-02-23T15:40:29.729Z,102101.41
2018-02-23T15:42:57.245Z,102098.96
2018-02-23T15:45:24.734Z,102097.39
2018-02-23T15:47:52.190Z,102105.38
2018-02-23T15:53:24.558Z,102106.65
2018-02-23T15:55:52.645Z,102104.73
2018-02-23T15:58:23.531Z,102105.64
2018-02-23T16:00:51.038Z,102105.02
2018-02-23T16:03:18.496Z,102110.35
2018-02-23T16:05:45.958Z,102107.76
2018-02-23T16:08:13.448Z,102114.27
2018-02-23T16:10:40.940Z,102116.59
2018-02-23T16:13:08.408Z,102114.59
2018-02-23T16:15:35.875Z,102115.72
2018-02-23T16:18:03.350Z,102116.98
2018-02-23T16:20:30.811Z,102121.27
2018-02-23T16:22:58.294Z,102113.63
2018-02-23T16:25:25.907Z,102122.11
2018-02-23T16:27:53.366Z,102121.02
2018-02-23T16:30:20.850Z,102127.28
2018-02-23T16:32:48.381Z,102124.20
2018-02-23T16:35:15.848Z,102127.14
2018-02-23T16:37:43.347Z,102121.69
2018-02-23T16:40:10.829Z,102119.27
2018-02-23T16:42:38.305Z,102124.44
2018-02-23T16:45:05.826Z,102116.77
2018-02-23T16:47:33.290Z,102117.78
2018-02-23T16:50:00.741Z,102123.59
2018-02-23T16:52:28.314Z,102117.05
2018-02-23T16:54:55.770Z,102115.05
2018-02-23T16:57:23.232Z,102115.16
2018-02-23T16:59:50.794Z,102121.13
2018-02-23T17:02:18.253Z,102121.27
2018-02-23T17:04:45.774Z,102114.66
2018-02-23T17:07:13.260Z,102117.39
2018-02-23T17:09:40.748Z,102118.05
2018-02-23T17:12:08.210Z,102125.52
2018-02-23T17:14:35.698Z,102123.31
2018-02-23T17:17:03.162Z,102126.28
2018-02-23T17:19:30.618Z,102136.07
2018-02-23T17:21:58.190Z,102133.58
2018-02-23T17:24:25.694Z,102127.21
2018-02-23T17:26:53.157Z,102127.70
2018-02-23T17:29:20.668Z,102125.52
2018-02-23T17:31:48.130Z,102130.80
2018-02-23T17:34:15.588Z,102137.34
2018-02-23T17:36:43.134Z,102132.67
2018-02-23T17:39:10.695Z,102137.57
2018-02-23T17:41:38.158Z,102132.59
2018-02-23T17:44:05.725Z,102137.06
2018-02-23T17:46:33.322Z,102135.48
2018-02-23T17:49:00.836Z,102141.06
2018-02-23T17:51:28.295Z,102145.70
2018-02-23T17:53:55.852Z,102144.73
2018-02-23T17:56:23.415Z,102146.19
2018-02-23T17:58:51.070Z,102151.05
2018-02-23T18:01:18.584Z,102153.58
2018-02-23T18:03:46.066Z,102158.22
2018-02-23T18:06:13.522Z,102159.65
2018-02-23T18:08:41.048Z,102161.30
2018-02-23T18:11:08.546Z,102166.13
2018-02-23T18:13:36.000Z,102163.86
2018-02-23T18:16:03.487Z,102163.54
2018-02-23T18:18:30.986Z,102165.87
2018-02-23T18:20:58.494Z,102165.13
2018-02-23T18:23:26.015Z,102168.08
2018-02-23T18:25:53.468Z,102163.94
2018-02-23T18:28:20.925Z,102162.84
2018-02-23T18:30:48.416Z,102156.30
2018-02-23T18:33:15.875Z,102159.67
2018-02-23T18:35:43.333Z,102157.53
2018-02-23T18:38:10.945Z,102160.19
2018-02-23T18:40:38.406Z,102156.63
2018-02-23T18:43:05.864Z,102170.55
2018-02-23T18:45:33.356Z,102164.07
2018-02-23T18:48:00.807Z,102165.23
2018-02-23T18:50:28.262Z,102166.56
2018-02-23T18:52:55.893Z,102160.47
2018-02-23T18:55:23.355Z,102164.13
2018-02-23T18:57:50.825Z,102166.53
2018-02-23T19:00:18.347Z,102169.25
2018-02-23T19:02:45.869Z,102180.22
2018-02-23T19:05:13.330Z,102175.06
2018-02-23T19:07:40.803Z,102181.41
2018-02-23T19:10:08.262Z,102176.59
2018-02-23T19:12:35.716Z,102179.40
2018-02-23T19:15:03.179Z,102180.98
2018-02-23T19:17:30.664Z,102184.77
2018-02-23T19:19:58.142Z,102193.50
2018-02-23T19:22:25.598Z,102198.88
2018-02-23T19:24:53.139Z,102194.50
2018-02-23T19:27:20.629Z,102199.25
2018-02-23T19:29:48.096Z,102198.44
2018-02-23T19:32:15.576Z,102206.05
2018-02-23T19:34:43.055Z,102199.50
2018-02-23T19:37:10.514Z,102204.74
2018-02-23T19:39:38.058Z,102213.55
2018-02-23T19:42:05.528Z,102206.13
2018-02-23T19:44:32.999Z,102211.27
2018-02-23T19:47:00.487Z,102214.95
2018-02-23T19:49:29.849Z,102218.03
2018-02-23T19:51:57.371Z,102221.04
2018-02-23T19:54:24.865Z,102213.98
2018-02-23T19:56:52.395Z,102220.26
2018-02-23T19:59:19.955Z,102222.45
2018-02-23T20:01:47.509Z,102221.26
2018-02-23T20:04:14.970Z,102232.71
2018-02-23T20:06:42.454Z,102228.38
2018-02-23T20:09:10.093Z,102234.20
2018-02-23T20:11:37.586Z,102233.84
2018-02-23T20:14:05.155Z,102232.80
2018-02-23T20:16:32.647Z,102221.89
2018-02-23T20:19:00.122Z,102226.94
2018-02-23T20:21:27.623Z,102227.78
2018-02-23T20:23:55.162Z,102228.69
2018-02-23T20:26:22.579Z,102230.01
2018-02-23T20:28:50.038Z,102225.55
2018-02-23T20:31:17.518Z,102229.13
2018-02-23T20:33:45.008Z,102226.13
2018-02-23T20:36:12.483Z,102224.17
2018-02-23T20:38:40.013Z,102225.53
2018-02-23T20:41:07.471Z,102224.17
2018-02-23T20:43:34.940Z,102221.97
2018-02-23T20:46:02.467Z,102223.30
2018-02-23T20:48:29.930Z,102231.80
2018-02-23T20:50:57.464Z,102232.16
2018-02-23T20:53:25.076Z,102238.85
2018-02-23T20:55:52.558Z,102233.79
2018-02-23T20:58:20.039Z,102241.96
2018-02-23T21:00:47.531Z,102238.23
2018-02-23T21:03:15.011Z,102235.12
2018-02-23T21:05:42.487Z,102242.27
2018-02-23T21:08:09.957Z,102242.69
2018-02-23T21:10:37.439Z,102238.86
2018-02-23T21:13:04.959Z,102242.96
2018-02-23T21:15:32.419Z,102247.66
2018-02-23T21:17:59.886Z,102242.39
2018-02-23T21:20:27.370Z,102242.96
2018-02-23T21:22:54.832Z,102238.17
2018-02-23T21:25:22.309Z,102252.70
2018-02-23T21:27:49.841Z,102250.73
2018-02-23T21:30:17.301Z,102253.96
2018-02-23T21:32:44.806Z,102247.33
2018-02-23T21:35:12.270Z,102250.13
2018-02-23T21:37:39.814Z,102252.84
2018-02-23T21:40:07.334Z,102252.58
2018-02-23T21:42:34.839Z,102248.56
2018-02-23T21:45:02.346Z,102241.45
2018-02-23T21:47:29.850Z,102246.67
2018-02-23T21:49:57.302Z,102253.30
2018-02-23T21:52:24.764Z,102256.88
2018-02-23T21:54:52.241Z,102255.98
2018-02-23T21:57:19.699Z,102254.38
2018-02-23T21:59:47.166Z,102253.63
2018-02-23T22:02:14.792Z,102248.39
2018-02-23T22:04:42.266Z,102245.67
2018-02-23T22:07:09.734Z,102248.93
2018-02-23T22:09:37.252Z,102251.64
2018-02-23T22:12:04.686Z,102248.72
2018-02-23T22:14:32.199Z,102254.08
2018-02-23T22:16:59.670Z,102250.25
2018-02-23T22:19:27.135Z,102248.08
2018-02-23T22:21:54.618Z,102252.09
2018-02-23T22:24:22.112Z,102247.69
2018-02-23T22:26:49.595Z,102253.89
2018-02-23T22:29:17.094Z,102252.72
2018-02-23T22:31:44.568Z,102248.80
2018-02-23T22:34:12.042Z,102264.80
2018-02-23T22:36:39.511Z,102257.69
2018-02-23T22:39:06.991Z,102266.06
2018-02-23T22:41:34.476Z,102262.62
2018-02-23T22:44:02.075Z,102265.64
2018-02-23T22:46:29.534Z,102269.19
2018-02-23T22:48:57.054Z,102274.97
2018-02-23T22:51:24.603Z,102267.86
2018-02-23T22:53:52.158Z,102271.57
2018-02-23T22:56:19.726Z,102268.55
2018-02-23T22:58:47.366Z,102268.28
2018-02-23T23:01:14.834Z,102263.91
2018-02-23T23:03:42.346Z,102269.36
2018-02-23T23:06:09.904Z,102266.07
2018-02-23T23:08:37.342Z,102267.16
2018-02-23T23:11:04.870Z,102266.98
2018-02-23T23:13:33.269Z,102264.35
2018-02-23T23:16:00.738Z,102268.75
2018-02-23T23:18:28.933Z,102268.03
2018-02-23T23:20:56.426Z,102268.20
2018-02-23T23:23:23.894Z,102263.95
2018-02-23T23:25:51.410Z,102273.70
2018-02-23T23:28:18.870Z,102274.61
2018-02-23T23:30:46.350Z,102267.22
2018-02-23T23:33:13.830Z,102268.70
2018-02-23T23:35:41.391Z,102271.34
2018-02-23T23:38:08.874Z,102270.50
2018-02-23T23:40:36.443Z,102274.84
2018-02-23T23:43:03.948Z,102273.15
2018-02-23T23:45:31.429Z,102271.34
2018-02-23T23:47:58.906Z,102270.31
2018-02-23T23:50:26.386Z,102272.48
2018-02-23T23:52:53.857Z,102273.52
2018-02-23T23:55:21.456Z,102276.77
2018-02-23T23:57:48.933Z,102268.38
